sensor_id;sensor_type;location;lat;lon;timestamp;P1;durP1;ratioP1;P2;durP2;ratioP2
11777;SDS011;5946;51.770;8.548;2023-07-28T00:00:08;6.53;;;4.73;;
11777;SDS011;5946;51.770;8.548;2023-07-28T00:02:34;6.57;;;4.43;;
11777;SDS011;5946;51.770;8.548;2023-07-28T00:05:00;8.17;;;4.43;;
11777;SDS011;5946;51.770;8.548;2023-07-28T00:07:26;7.53;;;4.37;;
11777;SDS011;5946;51.770;8.548;2023-07-28T00:09:52;4.63;;;4.23;;
11777;SDS011;5946;51.770;8.548;2023-07-28T00:12:18;7.40;;;4.63;;
11777;SDS011;5946;51.770;8.548;2023-07-28T00:14:44;8.43;;;5.10;;
11777;SDS011;5946;51.770;8.548;2023-07-28T00:17:10;5.83;;;4.50;;
11777;SDS011;5946;51.770;8.548;2023-07-28T00:19:36;4.47;;;4.07;;
11777;SDS011;5946;51.770;8.548;2023-07-28T00:22:02;7.53;;;4.30;;
11777;SDS011;5946;51.770;8.548;2023-07-28T00:24:28;8.17;;;4.20;;
11777;SDS011;5946;51.770;8.548;2023-07-28T00:26:54;4.93;;;4.20;;
11777;SDS011;5946;51.770;8.548;2023-07-28T00:29:20;5.03;;;4.53;;
11777;SDS011;5946;51.770;8.548;2023-07-28T00:31:46;5.67;;;4.63;;
11777;SDS011;5946;51.770;8.548;2023-07-28T00:34:12;7.50;;;4.70;;
11777;SDS011;5946;51.770;8.548;2023-07-28T00:36:38;6.83;;;4.60;;
11777;SDS011;5946;51.770;8.548;2023-07-28T00:39:04;7.93;;;4.17;;
11777;SDS011;5946;51.770;8.548;2023-07-28T00:41:30;7.87;;;4.57;;
11777;SDS011;5946;51.770;8.548;2023-07-28T00:43:55;5.97;;;4.37;;
11777;SDS011;5946;51.770;8.548;2023-07-28T00:46:21;7.33;;;4.17;;
11777;SDS011;5946;51.770;8.548;2023-07-28T00:48:47;6.90;;;4.33;;
11777;SDS011;5946;51.770;8.548;2023-07-28T00:51:13;5.93;;;4.07;;
11777;SDS011;5946;51.770;8.548;2023-07-28T00:53:39;5.53;;;4.07;;
11777;SDS011;5946;51.770;8.548;2023-07-28T00:56:06;4.67;;;4.03;;
11777;SDS011;5946;51.770;8.548;2023-07-28T00:58:33;6.30;;;3.70;;
11777;SDS011;5946;51.770;8.548;2023-07-28T01:00:59;4.17;;;3.60;;
11777;SDS011;5946;51.770;8.548;2023-07-28T01:03:25;4.83;;;3.40;;
11777;SDS011;5946;51.770;8.548;2023-07-28T01:11:04;4.07;;;3.50;;
11777;SDS011;5946;51.770;8.548;2023-07-28T01:13:30;6.77;;;3.80;;
11777;SDS011;5946;51.770;8.548;2023-07-28T01:15:56;6.63;;;4.30;;
11777;SDS011;5946;51.770;8.548;2023-07-28T01:18:22;11.07;;;4.37;;
11777;SDS011;5946;51.770;8.548;2023-07-28T01:20:48;5.40;;;4.00;;
11777;SDS011;5946;51.770;8.548;2023-07-28T01:23:20;5.70;;;4.03;;
11777;SDS011;5946;51.770;8.548;2023-07-28T01:26:06;6.67;;;4.40;;
11777;SDS011;5946;51.770;8.548;2023-07-28T01:28:34;7.30;;;4.70;;
11777;SDS011;5946;51.770;8.548;2023-07-28T01:31:04;8.03;;;4.83;;
11777;SDS011;5946;51.770;8.548;2023-07-28T01:33:30;8.67;;;4.97;;
11777;SDS011;5946;51.770;8.548;2023-07-28T01:35:56;12.33;;;6.47;;
11777;SDS011;5946;51.770;8.548;2023-07-28T01:38:24;11.77;;;6.53;;
11777;SDS011;5946;51.770;8.548;2023-07-28T01:40:50;9.50;;;6.57;;
11777;SDS011;5946;51.770;8.548;2023-07-28T01:43:15;13.20;;;7.30;;
11777;SDS011;5946;51.770;8.548;2023-07-28T01:45:41;13.27;;;7.60;;
11777;SDS011;5946;51.770;8.548;2023-07-28T01:48:07;14.53;;;9.10;;
11777;SDS011;5946;51.770;8.548;2023-07-28T01:50:34;18.60;;;8.97;;
11777;SDS011;5946;51.770;8.548;2023-07-28T01:53:00;17.03;;;9.87;;
11777;SDS011;5946;51.770;8.548;2023-07-28T01:55:27;19.90;;;10.20;;
11777;SDS011;5946;51.770;8.548;2023-07-28T01:57:57;20.30;;;9.80;;
11777;SDS011;5946;51.770;8.548;2023-07-28T02:00:23;19.27;;;10.63;;
11777;SDS011;5946;51.770;8.548;2023-07-28T02:02:49;19.37;;;10.83;;
11777;SDS011;5946;51.770;8.548;2023-07-28T02:05:15;20.90;;;10.27;;
11777;SDS011;5946;51.770;8.548;2023-07-28T02:07:41;24.33;;;11.20;;
11777;SDS011;5946;51.770;8.548;2023-07-28T02:10:08;21.53;;;10.20;;
11777;SDS011;5946;51.770;8.548;2023-07-28T02:12:35;21.70;;;10.73;;
11777;SDS011;5946;51.770;8.548;2023-07-28T02:15:01;24.50;;;10.57;;
11777;SDS011;5946;51.770;8.548;2023-07-28T02:17:27;18.77;;;10.73;;
11777;SDS011;5946;51.770;8.548;2023-07-28T02:19:53;25.43;;;11.07;;
11777;SDS011;5946;51.770;8.548;2023-07-28T02:22:19;21.23;;;11.53;;
11777;SDS011;5946;51.770;8.548;2023-07-28T02:24:45;18.70;;;11.07;;
11777;SDS011;5946;51.770;8.548;2023-07-28T02:27:11;20.70;;;10.80;;
11777;SDS011;5946;51.770;8.548;2023-07-28T02:29:37;16.43;;;10.47;;
11777;SDS011;5946;51.770;8.548;2023-07-28T02:32:02;18.77;;;10.07;;
11777;SDS011;5946;51.770;8.548;2023-07-28T02:34:28;15.60;;;10.13;;
11777;SDS011;5946;51.770;8.548;2023-07-28T02:36:54;17.87;;;9.47;;
11777;SDS011;5946;51.770;8.548;2023-07-28T02:39:20;19.80;;;9.37;;
11777;SDS011;5946;51.770;8.548;2023-07-28T02:41:47;16.07;;;8.50;;
11777;SDS011;5946;51.770;8.548;2023-07-28T02:44:13;18.77;;;9.63;;
11777;SDS011;5946;51.770;8.548;2023-07-28T02:46:38;19.03;;;9.57;;
11777;SDS011;5946;51.770;8.548;2023-07-28T02:49:04;14.30;;;8.73;;
11777;SDS011;5946;51.770;8.548;2023-07-28T02:51:30;16.37;;;9.70;;
11777;SDS011;5946;51.770;8.548;2023-07-28T02:53:58;18.97;;;8.93;;
11777;SDS011;5946;51.770;8.548;2023-07-28T02:56:24;15.37;;;9.83;;
11777;SDS011;5946;51.770;8.548;2023-07-28T02:58:50;17.67;;;9.70;;
11777;SDS011;5946;51.770;8.548;2023-07-28T03:01:16;17.57;;;9.40;;
11777;SDS011;5946;51.770;8.548;2023-07-28T03:03:42;22.83;;;10.07;;
11777;SDS011;5946;51.770;8.548;2023-07-28T03:06:08;17.50;;;10.17;;
11777;SDS011;5946;51.770;8.548;2023-07-28T03:08:34;16.47;;;9.77;;
11777;SDS011;5946;51.770;8.548;2023-07-28T03:11:00;17.70;;;10.27;;
11777;SDS011;5946;51.770;8.548;2023-07-28T03:13:29;17.77;;;10.30;;
11777;SDS011;5946;51.770;8.548;2023-07-28T03:15:55;18.37;;;10.63;;
11777;SDS011;5946;51.770;8.548;2023-07-28T03:18:21;17.50;;;10.50;;
11777;SDS011;5946;51.770;8.548;2023-07-28T03:20:47;18.00;;;9.83;;
11777;SDS011;5946;51.770;8.548;2023-07-28T03:23:13;18.63;;;10.23;;
11777;SDS011;5946;51.770;8.548;2023-07-28T03:25:39;20.23;;;10.30;;
11777;SDS011;5946;51.770;8.548;2023-07-28T03:28:05;22.43;;;10.60;;
11777;SDS011;5946;51.770;8.548;2023-07-28T03:30:31;16.10;;;10.23;;
11777;SDS011;5946;51.770;8.548;2023-07-28T03:32:57;17.17;;;9.47;;
11777;SDS011;5946;51.770;8.548;2023-07-28T03:35:23;16.03;;;9.27;;
11777;SDS011;5946;51.770;8.548;2023-07-28T03:37:49;16.00;;;8.97;;
11777;SDS011;5946;51.770;8.548;2023-07-28T03:40:15;21.77;;;9.43;;
11777;SDS011;5946;51.770;8.548;2023-07-28T03:42:41;12.17;;;7.83;;
11777;SDS011;5946;51.770;8.548;2023-07-28T03:45:07;17.00;;;8.60;;
11777;SDS011;5946;51.770;8.548;2023-07-28T03:47:33;16.97;;;8.63;;
11777;SDS011;5946;51.770;8.548;2023-07-28T03:49:59;15.53;;;8.50;;
11777;SDS011;5946;51.770;8.548;2023-07-28T03:52:25;13.23;;;8.10;;
11777;SDS011;5946;51.770;8.548;2023-07-28T03:54:51;10.53;;;7.77;;
11777;SDS011;5946;51.770;8.548;2023-07-28T03:57:17;13.53;;;8.47;;
11777;SDS011;5946;51.770;8.548;2023-07-28T03:59:43;13.03;;;8.43;;
11777;SDS011;5946;51.770;8.548;2023-07-28T04:02:09;12.93;;;7.93;;
11777;SDS011;5946;51.770;8.548;2023-07-28T04:04:35;12.87;;;7.23;;
11777;SDS011;5946;51.770;8.548;2023-07-28T04:07:01;12.70;;;7.57;;
11777;SDS011;5946;51.770;8.548;2023-07-28T04:09:27;11.23;;;7.40;;
11777;SDS011;5946;51.770;8.548;2023-07-28T04:11:53;13.37;;;8.30;;
11777;SDS011;5946;51.770;8.548;2023-07-28T04:14:19;14.30;;;7.57;;
11777;SDS011;5946;51.770;8.548;2023-07-28T04:16:45;13.93;;;7.83;;
11777;SDS011;5946;51.770;8.548;2023-07-28T04:19:11;13.80;;;7.50;;
11777;SDS011;5946;51.770;8.548;2023-07-28T04:21:37;12.27;;;8.10;;
11777;SDS011;5946;51.770;8.548;2023-07-28T04:24:05;16.67;;;8.33;;
11777;SDS011;5946;51.770;8.548;2023-07-28T04:26:32;13.23;;;8.30;;
11777;SDS011;5946;51.770;8.548;2023-07-28T04:28:57;12.93;;;8.20;;
11777;SDS011;5946;51.770;8.548;2023-07-28T04:31:23;15.30;;;8.80;;
11777;SDS011;5946;51.770;8.548;2023-07-28T04:33:49;17.30;;;8.70;;
11777;SDS011;5946;51.770;8.548;2023-07-28T04:36:15;12.80;;;8.80;;
11777;SDS011;5946;51.770;8.548;2023-07-28T04:38:41;19.87;;;9.60;;
11777;SDS011;5946;51.770;8.548;2023-07-28T04:41:07;13.23;;;8.93;;
11777;SDS011;5946;51.770;8.548;2023-07-28T04:43:33;19.37;;;10.20;;
11777;SDS011;5946;51.770;8.548;2023-07-28T04:45:59;18.97;;;9.47;;
11777;SDS011;5946;51.770;8.548;2023-07-28T04:48:26;15.97;;;8.93;;
11777;SDS011;5946;51.770;8.548;2023-07-28T04:50:52;18.33;;;9.17;;
11777;SDS011;5946;51.770;8.548;2023-07-28T04:53:19;15.23;;;9.40;;
11777;SDS011;5946;51.770;8.548;2023-07-28T04:55:45;14.60;;;8.97;;
11777;SDS011;5946;51.770;8.548;2023-07-28T04:58:11;17.10;;;9.80;;
11777;SDS011;5946;51.770;8.548;2023-07-28T05:00:37;12.47;;;8.70;;
11777;SDS011;5946;51.770;8.548;2023-07-28T05:03:03;12.07;;;8.00;;
11777;SDS011;5946;51.770;8.548;2023-07-28T05:05:29;14.50;;;8.37;;
11777;SDS011;5946;51.770;8.548;2023-07-28T05:07:55;14.83;;;8.10;;
11777;SDS011;5946;51.770;8.548;2023-07-28T05:10:21;14.10;;;8.07;;
11777;SDS011;5946;51.770;8.548;2023-07-28T05:12:47;12.40;;;7.87;;
11777;SDS011;5946;51.770;8.548;2023-07-28T05:15:14;10.70;;;7.00;;
11777;SDS011;5946;51.770;8.548;2023-07-28T05:17:40;12.37;;;7.70;;
11777;SDS011;5946;51.770;8.548;2023-07-28T05:20:06;13.93;;;7.27;;
11777;SDS011;5946;51.770;8.548;2023-07-28T05:22:32;11.30;;;7.60;;
11777;SDS011;5946;51.770;8.548;2023-07-28T05:24:58;14.60;;;7.53;;
11777;SDS011;5946;51.770;8.548;2023-07-28T05:27:24;11.47;;;7.40;;
11777;SDS011;5946;51.770;8.548;2023-07-28T05:29:50;13.40;;;6.80;;
11777;SDS011;5946;51.770;8.548;2023-07-28T05:32:16;12.00;;;7.10;;
11777;SDS011;5946;51.770;8.548;2023-07-28T05:34:42;14.40;;;6.40;;
11777;SDS011;5946;51.770;8.548;2023-07-28T05:37:09;12.50;;;6.23;;
11777;SDS011;5946;51.770;8.548;2023-07-28T05:39:35;13.50;;;6.37;;
11777;SDS011;5946;51.770;8.548;2023-07-28T05:42:01;10.80;;;5.50;;
11777;SDS011;5946;51.770;8.548;2023-07-28T05:44:27;9.97;;;5.90;;
11777;SDS011;5946;51.770;8.548;2023-07-28T05:46:53;11.10;;;5.53;;
11777;SDS011;5946;51.770;8.548;2023-07-28T05:49:19;11.00;;;5.70;;
11777;SDS011;5946;51.770;8.548;2023-07-28T05:51:45;9.07;;;6.00;;
11777;SDS011;5946;51.770;8.548;2023-07-28T05:54:11;10.40;;;5.33;;
11777;SDS011;5946;51.770;8.548;2023-07-28T05:56:41;8.03;;;5.23;;
11777;SDS011;5946;51.770;8.548;2023-07-28T05:59:07;8.63;;;5.03;;
11777;SDS011;5946;51.770;8.548;2023-07-28T06:01:33;9.43;;;5.53;;
11777;SDS011;5946;51.770;8.548;2023-07-28T06:03:59;6.67;;;4.93;;
11777;SDS011;5946;51.770;8.548;2023-07-28T06:06:25;11.60;;;5.13;;
11777;SDS011;5946;51.770;8.548;2023-07-28T06:08:52;6.90;;;5.27;;
11777;SDS011;5946;51.770;8.548;2023-07-28T06:11:18;9.90;;;5.10;;
11777;SDS011;5946;51.770;8.548;2023-07-28T06:13:44;6.40;;;4.73;;
11777;SDS011;5946;51.770;8.548;2023-07-28T06:16:11;6.40;;;4.80;;
11777;SDS011;5946;51.770;8.548;2023-07-28T06:18:37;8.20;;;5.40;;
11777;SDS011;5946;51.770;8.548;2023-07-28T06:21:03;6.57;;;4.80;;
11777;SDS011;5946;51.770;8.548;2023-07-28T06:23:29;9.20;;;4.70;;
11777;SDS011;5946;51.770;8.548;2023-07-28T06:25:55;7.23;;;4.83;;
11777;SDS011;5946;51.770;8.548;2023-07-28T06:28:21;6.27;;;5.10;;
11777;SDS011;5946;51.770;8.548;2023-07-28T06:30:47;4.77;;;4.27;;
11777;SDS011;5946;51.770;8.548;2023-07-28T06:33:13;5.03;;;4.50;;
11777;SDS011;5946;51.770;8.548;2023-07-28T06:35:39;6.20;;;5.10;;
11777;SDS011;5946;51.770;8.548;2023-07-28T06:38:05;7.47;;;4.67;;
11777;SDS011;5946;51.770;8.548;2023-07-28T06:40:31;6.83;;;4.33;;
11777;SDS011;5946;51.770;8.548;2023-07-28T06:42:57;6.33;;;4.93;;
11777;SDS011;5946;51.770;8.548;2023-07-28T06:45:23;7.40;;;5.20;;
11777;SDS011;5946;51.770;8.548;2023-07-28T06:47:49;5.80;;;5.10;;
11777;SDS011;5946;51.770;8.548;2023-07-28T06:50:16;5.70;;;5.20;;
11777;SDS011;5946;51.770;8.548;2023-07-28T06:52:42;5.17;;;4.67;;
11777;SDS011;5946;51.770;8.548;2023-07-28T06:55:08;7.73;;;4.90;;
11777;SDS011;5946;51.770;8.548;2023-07-28T06:57:34;6.23;;;5.63;;
11777;SDS011;5946;51.770;8.548;2023-07-28T07:00:00;7.20;;;5.10;;
11777;SDS011;5946;51.770;8.548;2023-07-28T07:02:26;7.97;;;6.07;;
11777;SDS011;5946;51.770;8.548;2023-07-28T07:04:52;8.00;;;5.50;;
11777;SDS011;5946;51.770;8.548;2023-07-28T07:07:18;5.60;;;5.10;;
11777;SDS011;5946;51.770;8.548;2023-07-28T07:09:44;7.73;;;5.90;;
11777;SDS011;5946;51.770;8.548;2023-07-28T07:12:10;7.43;;;6.10;;
11777;SDS011;5946;51.770;8.548;2023-07-28T07:14:36;10.10;;;6.23;;
11777;SDS011;5946;51.770;8.548;2023-07-28T07:17:02;6.70;;;6.00;;
11777;SDS011;5946;51.770;8.548;2023-07-28T07:19:28;6.50;;;5.90;;
11777;SDS011;5946;51.770;8.548;2023-07-28T07:21:54;6.57;;;5.83;;
11777;SDS011;5946;51.770;8.548;2023-07-28T07:24:20;6.53;;;5.50;;
11777;SDS011;5946;51.770;8.548;2023-07-28T07:26:46;9.07;;;6.17;;
11777;SDS011;5946;51.770;8.548;2023-07-28T07:29:13;8.20;;;6.30;;
11777;SDS011;5946;51.770;8.548;2023-07-28T07:31:39;7.73;;;6.90;;
11777;SDS011;5946;51.770;8.548;2023-07-28T07:34:05;7.20;;;6.60;;
11777;SDS011;5946;51.770;8.548;2023-07-28T07:36:31;7.67;;;6.30;;
11777;SDS011;5946;51.770;8.548;2023-07-28T07:38:58;7.10;;;6.30;;
11777;SDS011;5946;51.770;8.548;2023-07-28T07:41:24;9.70;;;6.47;;
11777;SDS011;5946;51.770;8.548;2023-07-28T07:43:51;9.17;;;6.93;;
11777;SDS011;5946;51.770;8.548;2023-07-28T07:46:17;7.13;;;6.43;;
11777;SDS011;5946;51.770;8.548;2023-07-28T07:48:47;7.27;;;6.67;;
11777;SDS011;5946;51.770;8.548;2023-07-28T07:51:13;8.17;;;7.20;;
11777;SDS011;5946;51.770;8.548;2023-07-28T07:53:39;7.67;;;6.87;;
11777;SDS011;5946;51.770;8.548;2023-07-28T07:56:05;9.70;;;7.40;;
11777;SDS011;5946;51.770;8.548;2023-07-28T07:58:32;9.87;;;8.17;;
11777;SDS011;5946;51.770;8.548;2023-07-28T08:00:58;9.00;;;8.10;;
11777;SDS011;5946;51.770;8.548;2023-07-28T08:03:24;10.63;;;9.63;;
11777;SDS011;5946;51.770;8.548;2023-07-28T08:05:51;11.63;;;9.90;;
11777;SDS011;5946;51.770;8.548;2023-07-28T08:08:17;17.13;;;10.90;;
11777;SDS011;5946;51.770;8.548;2023-07-28T08:10:44;12.63;;;11.33;;
11777;SDS011;5946;51.770;8.548;2023-07-28T08:13:10;13.87;;;11.67;;
11777;SDS011;5946;51.770;8.548;2023-07-28T08:15:36;15.83;;;12.67;;
11777;SDS011;5946;51.770;8.548;2023-07-28T08:18:02;14.60;;;12.80;;
11777;SDS011;5946;51.770;8.548;2023-07-28T08:20:29;16.80;;;13.50;;
11777;SDS011;5946;51.770;8.548;2023-07-28T08:22:55;16.50;;;13.47;;
11777;SDS011;5946;51.770;8.548;2023-07-28T08:25:21;15.27;;;13.57;;
11777;SDS011;5946;51.770;8.548;2023-07-28T08:27:48;16.40;;;13.93;;
11777;SDS011;5946;51.770;8.548;2023-07-28T08:30:14;16.90;;;13.97;;
11777;SDS011;5946;51.770;8.548;2023-07-28T08:32:43;18.57;;;14.43;;
11777;SDS011;5946;51.770;8.548;2023-07-28T08:35:10;17.00;;;15.03;;
11777;SDS011;5946;51.770;8.548;2023-07-28T08:37:36;16.57;;;14.87;;
11777;SDS011;5946;51.770;8.548;2023-07-28T08:40:02;18.00;;;16.10;;
11777;SDS011;5946;51.770;8.548;2023-07-28T08:42:30;18.90;;;16.73;;
11777;SDS011;5946;51.770;8.548;2023-07-28T08:44:56;19.10;;;16.67;;
11777;SDS011;5946;51.770;8.548;2023-07-28T08:47:23;20.07;;;16.70;;
11777;SDS011;5946;51.770;8.548;2023-07-28T08:49:49;18.43;;;16.20;;
11777;SDS011;5946;51.770;8.548;2023-07-28T08:52:15;19.97;;;15.90;;
11777;SDS011;5946;51.770;8.548;2023-07-28T08:54:42;18.47;;;16.57;;
11777;SDS011;5946;51.770;8.548;2023-07-28T08:57:09;18.37;;;15.70;;
11777;SDS011;5946;51.770;8.548;2023-07-28T08:59:35;18.10;;;16.30;;
11777;SDS011;5946;51.770;8.548;2023-07-28T09:02:03;17.53;;;15.50;;
11777;SDS011;5946;51.770;8.548;2023-07-28T09:04:31;16.70;;;15.10;;
11777;SDS011;5946;51.770;8.548;2023-07-28T09:06:57;15.37;;;13.73;;
11777;SDS011;5946;51.770;8.548;2023-07-28T09:09:23;14.70;;;13.20;;
11777;SDS011;5946;51.770;8.548;2023-07-28T09:11:53;15.20;;;13.70;;
11777;SDS011;5946;51.770;8.548;2023-07-28T09:14:20;14.80;;;13.30;;
11777;SDS011;5946;51.770;8.548;2023-07-28T09:16:48;14.13;;;12.82;;
11777;SDS011;5946;51.770;8.548;2023-07-28T09:19:15;13.85;;;12.40;;
11777;SDS011;5946;51.770;8.548;2023-07-28T09:21:44;13.57;;;12.30;;
11777;SDS011;5946;51.770;8.548;2023-07-28T09:24:13;13.05;;;11.85;;
11777;SDS011;5946;51.770;8.548;2023-07-28T09:26:46;13.68;;;12.40;;
11777;SDS011;5946;51.770;8.548;2023-07-28T09:29:14;12.85;;;11.63;;
11777;SDS011;5946;51.770;8.548;2023-07-28T09:31:40;13.05;;;11.70;;
11777;SDS011;5946;51.770;8.548;2023-07-28T09:34:10;12.93;;;11.63;;
11777;SDS011;5946;51.770;8.548;2023-07-28T09:36:36;12.38;;;11.10;;
11777;SDS011;5946;51.770;8.548;2023-07-28T09:39:03;13.50;;;11.57;;
11777;SDS011;5946;51.770;8.548;2023-07-28T09:41:32;14.07;;;12.68;;
11777;SDS011;5946;51.770;8.548;2023-07-28T09:43:58;13.88;;;12.48;;
11777;SDS011;5946;51.770;8.548;2023-07-28T09:46:24;13.45;;;11.55;;
11777;SDS011;5946;51.770;8.548;2023-07-28T09:48:55;14.93;;;13.48;;
11777;SDS011;5946;51.770;8.548;2023-07-28T09:51:22;15.15;;;13.65;;
11777;SDS011;5946;51.770;8.548;2023-07-28T09:54:04;15.02;;;13.63;;
11777;SDS011;5946;51.770;8.548;2023-07-28T09:56:31;16.52;;;14.82;;
11777;SDS011;5946;51.770;8.548;2023-07-28T09:58:58;16.65;;;15.05;;
11777;SDS011;5946;51.770;8.548;2023-07-28T10:01:25;16.27;;;14.77;;
11777;SDS011;5946;51.770;8.548;2023-07-28T10:03:51;17.00;;;15.30;;
11777;SDS011;5946;51.770;8.548;2023-07-28T10:06:17;17.38;;;12.90;;
11777;SDS011;5946;51.770;8.548;2023-07-28T10:08:43;14.80;;;13.40;;
11777;SDS011;5946;51.770;8.548;2023-07-28T10:11:11;15.27;;;13.77;;
11777;SDS011;5946;51.770;8.548;2023-07-28T10:13:41;15.48;;;13.88;;
11777;SDS011;5946;51.770;8.548;2023-07-28T10:16:07;15.45;;;13.95;;
11777;SDS011;5946;51.770;8.548;2023-07-28T10:18:39;22.35;;;15.02;;
11777;SDS011;5946;51.770;8.548;2023-07-28T10:21:06;16.80;;;15.23;;
11777;SDS011;5946;51.770;8.548;2023-07-28T10:23:35;16.35;;;14.73;;
11777;SDS011;5946;51.770;8.548;2023-07-28T10:26:02;16.35;;;14.70;;
11777;SDS011;5946;51.770;8.548;2023-07-28T10:28:32;16.42;;;14.90;;
11777;SDS011;5946;51.770;8.548;2023-07-28T10:31:02;17.50;;;14.07;;
11777;SDS011;5946;51.770;8.548;2023-07-28T10:33:28;17.00;;;12.80;;
11777;SDS011;5946;51.770;8.548;2023-07-28T10:35:55;14.43;;;13.00;;
11777;SDS011;5946;51.770;8.548;2023-07-28T10:38:31;14.20;;;12.90;;
11777;SDS011;5946;51.770;8.548;2023-07-28T10:43:39;13.20;;;9.85;;
11777;SDS011;5946;51.770;8.548;2023-07-28T10:46:05;10.13;;;9.05;;
11777;SDS011;5946;51.770;8.548;2023-07-28T10:48:36;10.07;;;8.45;;
11777;SDS011;5946;51.770;8.548;2023-07-28T10:51:03;7.35;;;6.65;;
11777;SDS011;5946;51.770;8.548;2023-07-28T10:53:29;7.10;;;6.40;;
11777;SDS011;5946;51.770;8.548;2023-07-28T10:55:57;7.00;;;6.40;;
11777;SDS011;5946;51.770;8.548;2023-07-28T10:58:24;6.70;;;6.10;;
11777;SDS011;5946;51.770;8.548;2023-07-28T11:00:50;6.10;;;5.50;;
11777;SDS011;5946;51.770;8.548;2023-07-28T11:03:17;6.50;;;5.95;;
11777;SDS011;5946;51.770;8.548;2023-07-28T11:05:45;6.80;;;6.20;;
11777;SDS011;5946;51.770;8.548;2023-07-28T11:08:11;6.30;;;5.80;;
11777;SDS011;5946;51.770;8.548;2023-07-28T11:10:37;6.68;;;6.07;;
11777;SDS011;5946;51.770;8.548;2023-07-28T11:13:05;7.40;;;6.70;;
11777;SDS011;5946;51.770;8.548;2023-07-28T11:15:31;7.97;;;7.18;;
11777;SDS011;5946;51.770;8.548;2023-07-28T11:17:58;7.70;;;7.00;;
11777;SDS011;5946;51.770;8.548;2023-07-28T11:20:25;7.78;;;7.13;;
11777;SDS011;5946;51.770;8.548;2023-07-28T11:22:53;7.25;;;6.55;;
11777;SDS011;5946;51.770;8.548;2023-07-28T11:25:19;7.97;;;7.28;;
11777;SDS011;5946;51.770;8.548;2023-07-28T11:27:46;9.52;;;8.65;;
11777;SDS011;5946;51.770;8.548;2023-07-28T11:30:12;8.63;;;7.93;;
11777;SDS011;5946;51.770;8.548;2023-07-28T11:32:39;8.77;;;7.97;;
11777;SDS011;5946;51.770;8.548;2023-07-28T11:35:05;8.73;;;7.45;;
11777;SDS011;5946;51.770;8.548;2023-07-28T11:37:35;10.60;;;7.93;;
11777;SDS011;5946;51.770;8.548;2023-07-28T11:40:01;7.90;;;7.30;;
11777;SDS011;5946;51.770;8.548;2023-07-28T11:42:32;8.15;;;7.45;;
11777;SDS011;5946;51.770;8.548;2023-07-28T11:44:58;8.48;;;7.78;;
11777;SDS011;5946;51.770;8.548;2023-07-28T11:47:24;9.05;;;8.23;;
11777;SDS011;5946;51.770;8.548;2023-07-28T11:49:50;12.65;;;8.85;;
11777;SDS011;5946;51.770;8.548;2023-07-28T11:52:16;9.95;;;9.15;;
11777;SDS011;5946;51.770;8.548;2023-07-28T11:54:43;11.30;;;10.10;;
11777;SDS011;5946;51.770;8.548;2023-07-28T11:57:10;10.90;;;10.00;;
11777;SDS011;5946;51.770;8.548;2023-07-28T11:59:36;10.45;;;9.55;;
11777;SDS011;5946;51.770;8.548;2023-07-28T12:02:03;11.77;;;10.68;;
11777;SDS011;5946;51.770;8.548;2023-07-28T12:04:36;10.65;;;9.65;;
11777;SDS011;5946;51.770;8.548;2023-07-28T12:07:09;9.95;;;9.13;;
11777;SDS011;5946;51.770;8.548;2023-07-28T12:12:17;9.35;;;8.57;;
11777;SDS011;5946;51.770;8.548;2023-07-28T12:14:43;9.77;;;8.85;;
11777;SDS011;5946;51.770;8.548;2023-07-28T12:17:12;9.35;;;8.40;;
11777;SDS011;5946;51.770;8.548;2023-07-28T12:22:23;9.57;;;8.70;;
11777;SDS011;5946;51.770;8.548;2023-07-28T12:24:49;8.65;;;7.82;;
11777;SDS011;5946;51.770;8.548;2023-07-28T12:27:15;9.30;;;8.52;;
11777;SDS011;5946;51.770;8.548;2023-07-28T12:29:41;9.63;;;8.70;;
11777;SDS011;5946;51.770;8.548;2023-07-28T12:32:07;8.98;;;8.20;;
11777;SDS011;5946;51.770;8.548;2023-07-28T12:34:33;9.02;;;8.15;;
11777;SDS011;5946;51.770;8.548;2023-07-28T12:36:59;8.85;;;8.05;;
11777;SDS011;5946;51.770;8.548;2023-07-28T12:39:25;8.23;;;7.63;;
11777;SDS011;5946;51.770;8.548;2023-07-28T12:41:51;7.75;;;7.15;;
11777;SDS011;5946;51.770;8.548;2023-07-28T12:44:20;8.07;;;7.38;;
11777;SDS011;5946;51.770;8.548;2023-07-28T12:46:46;6.97;;;6.47;;
11777;SDS011;5946;51.770;8.548;2023-07-28T12:49:12;6.55;;;6.05;;
11777;SDS011;5946;51.770;8.548;2023-07-28T12:51:39;7.82;;;6.97;;
11777;SDS011;5946;51.770;8.548;2023-07-28T12:54:06;6.28;;;5.68;;
11777;SDS011;5946;51.770;8.548;2023-07-28T12:56:32;6.22;;;5.70;;
11777;SDS011;5946;51.770;8.548;2023-07-28T12:58:58;9.15;;;6.10;;
11777;SDS011;5946;51.770;8.548;2023-07-28T13:01:24;6.40;;;5.90;;
11777;SDS011;5946;51.770;8.548;2023-07-28T13:03:50;6.43;;;5.82;;
11777;SDS011;5946;51.770;8.548;2023-07-28T13:06:16;8.20;;;6.55;;
11777;SDS011;5946;51.770;8.548;2023-07-28T13:08:42;7.07;;;5.18;;
11777;SDS011;5946;51.770;8.548;2023-07-28T13:11:08;5.10;;;4.70;;
11777;SDS011;5946;51.770;8.548;2023-07-28T13:13:34;4.97;;;4.47;;
11777;SDS011;5946;51.770;8.548;2023-07-28T13:16:00;4.00;;;3.60;;
11777;SDS011;5946;51.770;8.548;2023-07-28T13:18:26;2.88;;;2.67;;
11777;SDS011;5946;51.770;8.548;2023-07-28T13:20:54;3.10;;;2.53;;
11777;SDS011;5946;51.770;8.548;2023-07-28T13:23:20;3.30;;;2.10;;
11777;SDS011;5946;51.770;8.548;2023-07-28T13:25:46;3.20;;;2.83;;
11777;SDS011;5946;51.770;8.548;2023-07-28T13:28:12;2.75;;;2.55;;
11777;SDS011;5946;51.770;8.548;2023-07-28T13:30:39;2.38;;;2.28;;
11777;SDS011;5946;51.770;8.548;2023-07-28T13:33:05;2.60;;;2.40;;
11777;SDS011;5946;51.770;8.548;2023-07-28T13:35:32;2.42;;;2.10;;
11777;SDS011;5946;51.770;8.548;2023-07-28T13:37:58;2.63;;;2.47;;
11777;SDS011;5946;51.770;8.548;2023-07-28T13:40:24;2.55;;;2.35;;
11777;SDS011;5946;51.770;8.548;2023-07-28T13:42:50;3.80;;;2.45;;
11777;SDS011;5946;51.770;8.548;2023-07-28T13:45:15;3.28;;;2.97;;
11777;SDS011;5946;51.770;8.548;2023-07-28T13:47:42;4.10;;;3.13;;
11777;SDS011;5946;51.770;8.548;2023-07-28T13:50:08;3.65;;;3.35;;
11777;SDS011;5946;51.770;8.548;2023-07-28T13:52:34;3.85;;;3.55;;
11777;SDS011;5946;51.770;8.548;2023-07-28T13:55:00;3.50;;;3.20;;
11777;SDS011;5946;51.770;8.548;2023-07-28T13:57:26;3.70;;;3.40;;
11777;SDS011;5946;51.770;8.548;2023-07-28T13:59:52;3.33;;;3.13;;
11777;SDS011;5946;51.770;8.548;2023-07-28T14:02:18;3.60;;;3.30;;
11777;SDS011;5946;51.770;8.548;2023-07-28T14:04:44;3.70;;;3.50;;
11777;SDS011;5946;51.770;8.548;2023-07-28T14:07:10;4.13;;;3.83;;
11777;SDS011;5946;51.770;8.548;2023-07-28T14:09:36;4.70;;;4.30;;
11777;SDS011;5946;51.770;8.548;2023-07-28T14:12:03;4.75;;;4.28;;
11777;SDS011;5946;51.770;8.548;2023-07-28T14:14:29;4.57;;;4.18;;
11777;SDS011;5946;51.770;8.548;2023-07-28T14:16:55;5.63;;;5.05;;
11777;SDS011;5946;51.770;8.548;2023-07-28T14:19:21;5.82;;;4.90;;
11777;SDS011;5946;51.770;8.548;2023-07-28T14:21:47;4.82;;;4.43;;
11777;SDS011;5946;51.770;8.548;2023-07-28T14:24:13;6.53;;;5.05;;
11777;SDS011;5946;51.770;8.548;2023-07-28T14:26:39;5.07;;;4.68;;
11777;SDS011;5946;51.770;8.548;2023-07-28T14:29:04;5.55;;;5.05;;
11777;SDS011;5946;51.770;8.548;2023-07-28T14:31:31;5.28;;;4.75;;
11777;SDS011;5946;51.770;8.548;2023-07-28T14:33:57;6.00;;;4.82;;
11777;SDS011;5946;51.770;8.548;2023-07-28T14:36:23;4.65;;;4.25;;
11777;SDS011;5946;51.770;8.548;2023-07-28T14:38:49;4.50;;;4.10;;
11777;SDS011;5946;51.770;8.548;2023-07-28T14:41:15;5.50;;;3.40;;
11777;SDS011;5946;51.770;8.548;2023-07-28T14:43:41;3.63;;;3.33;;
11777;SDS011;5946;51.770;8.548;2023-07-28T14:46:07;3.08;;;2.88;;
11777;SDS011;5946;51.770;8.548;2023-07-28T14:48:32;3.30;;;3.03;;
11777;SDS011;5946;51.770;8.548;2023-07-28T14:51:00;4.80;;;3.00;;
11777;SDS011;5946;51.770;8.548;2023-07-28T14:53:33;5.70;;;2.47;;
11777;SDS011;5946;51.770;8.548;2023-07-28T14:56:00;2.75;;;2.20;;
11777;SDS011;5946;51.770;8.548;2023-07-28T14:58:26;2.35;;;1.90;;